Pine Valley, Utah
Current Conditions -  °F | °C
As of 1:35 PM on Tuesday 21 Oct 2014 (Local Time) from KSGU Reporting Station
Clear Clear  
Wind Chill: 81°   Ceiling: Unl
Heat Index: 81°   Visibility: 10mi
Dew Point: 45°   Wind: 3mph
Humidity: 28%   Direction: 240°WSW
Pressure: 29.91"   Gusts: NA
Location:  37.39°N, 113.52°W
Report Text: KSGU 211935Z AUTO 24003KT 10SM CLR 27/07 A2991 RMK AO1
Loading
Personal Weather Stations






























Interactive Weather Map
Tropical Storm Tracking
New forecast layout! Learn more

10-Day Weather Forecast

Advertisements
Track Severe Weather on mobile